createdAt,value
2023-03-21T00:00:45.601Z,99027.25
2023-03-21T00:03:13.665Z,99034.41
2023-03-21T00:05:42.354Z,99031.03
2023-03-21T00:08:10.631Z,99038.09
2023-03-21T00:10:43.884Z,99039.97
2023-03-21T00:13:14.301Z,99046.69
2023-03-21T00:16:04.453Z,99045.41
2023-03-21T00:18:36.784Z,99038.94
2023-03-21T00:21:39.234Z,99041.13
2023-03-21T00:23:55.003Z,99052.38
2023-03-21T00:26:23.691Z,99047.69
2023-03-21T00:28:53.038Z,99040.28
2023-03-21T00:31:20.973Z,99037.63
2023-03-21T00:33:48.877Z,99035.00
2023-03-21T00:36:17.411Z,99023.50
2023-03-21T00:38:46.078Z,99023.88
2023-03-21T00:41:26.302Z,99030.75
2023-03-21T00:44:00.908Z,99024.13
2023-03-21T00:46:39.776Z,99013.22
2023-03-21T00:49:10.611Z,99012.59
2023-03-21T00:51:38.530Z,99017.72
2023-03-21T00:54:06.548Z,98973.19
2023-03-21T00:56:34.484Z,99011.59
2023-03-21T00:59:03.756Z,99005.38
2023-03-21T01:01:34.693Z,99016.97
2023-03-21T01:04:05.662Z,99006.56
2023-03-21T01:06:34.342Z,99007.31
2023-03-21T01:09:02.313Z,99000.94
2023-03-21T01:11:30.231Z,99009.13
2023-03-21T01:14:14.760Z,98997.50
2023-03-21T01:16:48.555Z,99008.00
2023-03-21T01:19:50.759Z,99002.78
2023-03-21T01:22:08.759Z,99000.03
2023-03-21T01:24:40.495Z,99005.84
2023-03-21T01:27:14.688Z,98999.63
2023-03-21T01:29:43.591Z,98998.25
2023-03-21T01:32:12.871Z,98999.03
2023-03-21T01:34:40.778Z,98995.63
2023-03-21T01:37:08.699Z,98998.66
2023-03-21T01:39:37.353Z,98988.06
2023-03-21T01:42:05.554Z,98987.22
2023-03-21T01:44:33.549Z,98987.72
2023-03-21T01:47:17.187Z,98980.81
2023-03-21T01:49:48.707Z,98981.97
2023-03-21T01:52:33.349Z,98973.88
2023-03-21T01:55:05.160Z,98968.78
2023-03-21T01:57:54.940Z,98976.84
2023-03-21T02:00:29.593Z,98973.81
2023-03-21T02:03:11.125Z,98963.03
2023-03-21T02:05:49.285Z,98964.41
2023-03-21T02:08:17.372Z,98963.31
2023-03-21T02:10:50.587Z,98954.34
2023-03-21T02:13:19.606Z,98960.22
2023-03-21T02:16:00.602Z,98949.22
2023-03-21T02:18:34.884Z,98955.16
2023-03-21T02:21:28.291Z,98953.78
2023-03-21T02:24:22.270Z,98938.03
2023-03-21T02:27:14.120Z,98950.84
2023-03-21T02:30:20.171Z,98949.09
2023-03-21T02:33:26.707Z,98944.59
2023-03-21T02:36:17.147Z,98940.03
2023-03-21T02:38:52.670Z,98947.00
2023-03-21T02:41:29.684Z,98935.78
2023-03-21T02:44:07.384Z,98932.69
2023-03-21T02:46:49.009Z,98944.03
2023-03-21T02:49:26.197Z,98941.16
2023-03-21T02:51:54.898Z,98938.41
2023-03-21T02:54:35.369Z,98927.00
2023-03-21T02:57:10.706Z,98933.38
2023-03-21T02:59:51.632Z,98924.22
2023-03-21T03:02:26.275Z,98925.72
2023-03-21T03:04:54.389Z,98924.53
2023-03-21T03:07:36.452Z,98919.13
2023-03-21T03:10:18.545Z,98927.19
2023-03-21T03:12:57.920Z,98931.34
2023-03-21T03:15:35.589Z,98932.84
2023-03-21T03:18:14.548Z,98928.47
2023-03-21T03:20:54.408Z,98924.41
2023-03-21T03:23:29.482Z,98913.81
2023-03-21T03:26:06.443Z,98919.91
2023-03-21T03:28:39.685Z,98917.66
2023-03-21T03:31:12.075Z,98922.91
2023-03-21T03:33:45.095Z,98894.84
2023-03-21T03:36:33.581Z,98914.25
2023-03-21T03:39:05.829Z,98914.38
2023-03-21T03:42:12.687Z,98916.25
2023-03-21T03:44:28.546Z,98916.78
2023-03-21T03:47:01.139Z,98906.59
2023-03-21T03:49:33.177Z,98908.84
2023-03-21T03:52:05.099Z,98919.44
2023-03-21T03:54:37.412Z,98914.47
2023-03-21T03:57:08.247Z,98913.06
2023-03-21T03:59:38.231Z,98922.22
2023-03-21T04:02:06.286Z,98922.53
2023-03-21T04:04:34.510Z,98926.72
2023-03-21T04:07:03.651Z,98915.53
2023-03-21T04:09:43.673Z,98919.00
2023-03-21T04:12:14.594Z,98914.31
2023-03-21T04:14:46.039Z,98917.88
2023-03-21T04:17:15.130Z,98912.13
2023-03-21T04:19:43.046Z,98917.06
2023-03-21T04:22:10.948Z,98919.22
2023-03-21T04:24:39.509Z,98926.59
2023-03-21T04:27:08.294Z,98910.94
2023-03-21T04:29:37.553Z,98924.03
2023-03-21T04:32:06.394Z,98921.19
2023-03-21T04:34:40.328Z,98923.69
2023-03-21T04:37:13.699Z,98921.25
2023-03-21T04:39:42.823Z,98920.84
2023-03-21T04:42:10.745Z,98904.50
2023-03-21T04:44:40.007Z,98918.44
2023-03-21T04:47:08.020Z,98909.16
2023-03-21T04:49:35.886Z,98910.66
2023-03-21T04:52:03.949Z,98918.88
2023-03-21T04:54:32.456Z,98903.75
2023-03-21T04:57:00.476Z,98920.81
2023-03-21T04:59:28.417Z,98913.50
2023-03-21T05:01:58.791Z,98913.28
2023-03-21T05:04:27.945Z,98914.28
2023-03-21T05:06:56.876Z,98915.63
2023-03-21T05:09:24.959Z,98917.47
2023-03-21T05:11:53.732Z,98912.78
2023-03-21T05:14:23.665Z,98906.47
2023-03-21T05:16:56.363Z,98914.91
2023-03-21T05:19:34.839Z,98896.09
2023-03-21T05:22:10.172Z,98901.06
2023-03-21T05:24:42.326Z,98906.00
2023-03-21T05:27:10.285Z,98901.69
2023-03-21T05:29:38.159Z,98898.38
2023-03-21T05:32:06.625Z,98898.78
2023-03-21T05:34:36.122Z,98895.69
2023-03-21T05:37:04.025Z,98905.75
2023-03-21T05:39:31.879Z,98895.38
2023-03-21T05:41:59.774Z,98895.78
2023-03-21T05:44:27.701Z,98893.84
2023-03-21T05:46:55.637Z,98900.28
2023-03-21T05:49:24.587Z,98899.19
2023-03-21T05:51:54.128Z,98895.22
2023-03-21T05:54:21.989Z,98903.28
2023-03-21T05:56:49.908Z,98892.25
2023-03-21T05:59:18.040Z,98893.72
2023-03-21T06:01:46.083Z,98896.06
2023-03-21T06:04:15.709Z,98900.94
2023-03-21T06:06:43.770Z,98901.22
2023-03-21T06:09:13.709Z,98896.13
2023-03-21T06:11:48.459Z,98889.56
2023-03-21T06:14:17.939Z,98894.13
2023-03-21T06:16:46.930Z,98898.16
2023-03-21T06:19:15.324Z,98893.56
2023-03-21T06:21:43.551Z,98893.66
2023-03-21T06:24:12.825Z,98899.16
2023-03-21T06:26:42.497Z,98895.44
2023-03-21T06:29:11.656Z,98897.53
2023-03-21T06:31:39.710Z,98895.28
2023-03-21T06:34:10.582Z,98878.31
2023-03-21T06:36:39.944Z,98892.63
2023-03-21T06:39:08.824Z,98898.09
2023-03-21T06:41:38.118Z,98897.84
2023-03-21T06:44:06.250Z,98899.31
2023-03-21T06:46:34.178Z,98886.47
2023-03-21T06:49:02.097Z,98892.69
2023-03-21T06:51:30.012Z,98898.03
2023-03-21T06:53:58.573Z,98898.97
2023-03-21T06:56:26.624Z,98889.16
2023-03-21T06:58:55.869Z,98898.09
2023-03-21T07:01:27.650Z,98905.09
2023-03-21T07:03:59.344Z,98896.41
2023-03-21T07:06:28.124Z,98902.72
2023-03-21T07:08:57.064Z,98867.56
2023-03-21T07:11:26.006Z,98898.94
2023-03-21T07:13:55.376Z,98893.34
2023-03-21T07:16:24.967Z,98889.06
2023-03-21T07:18:53.222Z,98882.69
2023-03-21T07:21:21.631Z,98886.72
2023-03-21T07:23:50.397Z,98881.75
2023-03-21T07:26:18.532Z,98883.75
2023-03-21T07:28:46.640Z,98880.13
2023-03-21T07:31:19.520Z,98879.69
2023-03-21T07:33:47.451Z,98882.81
2023-03-21T07:36:17.156Z,98873.84
2023-03-21T07:38:45.988Z,98877.84
2023-03-21T07:43:47.205Z,98864.44
2023-03-21T07:46:16.565Z,98874.06
2023-03-21T07:48:44.507Z,98878.31
2023-03-21T07:51:12.414Z,98883.31
2023-03-21T07:53:41.935Z,98878.03
2023-03-21T07:56:10.537Z,98880.75
2023-03-21T07:58:38.398Z,98888.63
2023-03-21T08:01:06.698Z,98892.94
2023-03-21T08:03:36.015Z,98900.31
2023-03-21T08:06:03.948Z,98900.59
2023-03-21T08:08:32.034Z,98904.06
2023-03-21T08:11:00.136Z,98909.28
2023-03-21T08:13:27.987Z,98893.78
2023-03-21T08:15:55.953Z,98908.88
2023-03-21T08:18:23.955Z,98908.41
2023-03-21T08:20:55.016Z,98904.31
2023-03-21T08:23:23.801Z,98905.13
2023-03-21T08:25:54.157Z,98907.97
2023-03-21T08:28:23.028Z,98904.84
2023-03-21T08:30:51.567Z,98909.94
2023-03-21T08:33:19.703Z,98899.44
2023-03-21T08:35:47.930Z,98907.09
2023-03-21T08:38:17.187Z,98891.63
2023-03-21T08:40:45.113Z,98902.81
2023-03-21T08:43:14.853Z,98902.06
2023-03-21T08:45:42.929Z,98909.03
2023-03-21T08:48:10.919Z,98907.88
2023-03-21T08:50:38.873Z,98900.44
2023-03-21T08:53:06.728Z,98901.69
2023-03-21T08:55:36.111Z,98903.66
2023-03-21T08:58:04.544Z,98899.03
2023-03-21T09:00:32.452Z,98898.00
2023-03-21T09:03:00.385Z,98900.88
2023-03-21T09:05:28.574Z,98896.97
2023-03-21T09:07:56.496Z,98897.13
2023-03-21T09:10:25.450Z,98883.03
2023-03-21T09:12:56.523Z,98889.97
2023-03-21T09:15:28.737Z,98890.53
2023-03-21T09:17:58.720Z,98885.97
2023-03-21T09:20:33.166Z,98870.25
2023-03-21T09:23:02.945Z,98879.34
2023-03-21T09:25:31.895Z,98884.13
2023-03-21T09:28:02.347Z,98870.31
2023-03-21T09:30:31.544Z,98849.53
2023-03-21T09:33:01.298Z,98874.22
2023-03-21T09:35:29.640Z,98863.63
2023-03-21T09:37:59.050Z,98870.47
2023-03-21T09:40:46.840Z,98865.31
2023-03-21T09:43:33.148Z,98861.75
2023-03-21T09:46:09.683Z,98869.28
2023-03-21T09:48:56.743Z,98870.25
2023-03-21T09:51:28.882Z,98855.25
2023-03-21T09:53:58.609Z,98877.47
2023-03-21T09:56:27.173Z,98871.59
2023-03-21T09:58:59.497Z,98866.28
2023-03-21T10:01:30.151Z,98862.25
2023-03-21T10:04:01.704Z,98876.53
2023-03-21T10:06:30.955Z,98870.88
2023-03-21T10:09:06.655Z,98884.75
2023-03-21T10:11:44.326Z,98884.72
2023-03-21T10:14:20.337Z,98879.53
2023-03-21T10:16:51.056Z,98867.19
2023-03-21T10:19:20.947Z,98868.91
2023-03-21T10:22:00.864Z,98866.81
2023-03-21T10:24:32.681Z,98860.59
2023-03-21T10:27:02.533Z,98868.31
2023-03-21T10:29:37.175Z,98861.72
2023-03-21T10:32:05.512Z,98864.34
2023-03-21T10:34:39.212Z,98862.59
2023-03-21T10:37:07.835Z,98861.53
2023-03-21T10:39:39.018Z,98860.16
2023-03-21T10:42:07.097Z,98852.75
2023-03-21T10:44:37.421Z,98849.28
2023-03-21T10:47:07.628Z,98848.66
2023-03-21T10:49:56.309Z,98844.41
2023-03-21T10:52:29.732Z,98846.41
2023-03-21T10:55:09.705Z,98839.59
2023-03-21T10:57:38.905Z,98832.38
2023-03-21T11:00:18.320Z,98828.69
2023-03-21T11:02:49.944Z,98826.97
2023-03-21T11:05:24.143Z,98812.47
2023-03-21T11:08:00.166Z,98803.22
2023-03-21T11:10:31.819Z,98799.09
2023-03-21T11:13:05.114Z,98801.75
2023-03-21T11:15:42.550Z,98800.72
2023-03-21T11:18:21.876Z,98799.81
2023-03-21T11:20:53.233Z,98802.94
2023-03-21T11:23:22.196Z,98786.00
2023-03-21T11:25:51.718Z,98792.25
2023-03-21T11:28:22.901Z,98783.13
2023-03-21T11:30:55.855Z,98782.06
2023-03-21T11:33:27.829Z,98777.69
2023-03-21T11:36:04.083Z,98765.47
2023-03-21T11:38:34.279Z,98774.81
2023-03-21T11:41:03.418Z,98749.00
2023-03-21T11:43:33.624Z,98762.91
2023-03-21T11:46:08.465Z,98754.50
2023-03-21T11:48:40.783Z,98758.56
2023-03-21T11:51:19.947Z,98758.56
2023-03-21T11:53:52.658Z,98759.81
2023-03-21T11:56:30.470Z,98754.41
2023-03-21T11:59:32.054Z,98749.69
2023-03-21T12:02:19.181Z,98752.16
2023-03-21T12:04:52.562Z,98741.50
2023-03-21T12:07:32.085Z,98738.50
2023-03-21T12:10:29.830Z,98746.09
2023-03-21T12:13:11.434Z,98735.47
2023-03-21T12:15:44.848Z,98745.16
2023-03-21T12:18:22.990Z,98746.94
2023-03-21T12:20:55.712Z,98737.59
2023-03-21T12:23:44.135Z,98733.38
2023-03-21T12:26:21.087Z,98700.06
2023-03-21T12:29:11.858Z,98716.88
2023-03-21T12:31:54.080Z,98717.13
2023-03-21T12:34:39.368Z,98726.16
2023-03-21T12:37:18.735Z,98724.63
2023-03-21T12:39:49.359Z,98710.94
2023-03-21T12:43:01.698Z,98709.09
2023-03-21T12:45:45.858Z,98704.25
2023-03-21T12:48:21.777Z,98708.31
2023-03-21T12:50:54.972Z,98701.94
2023-03-21T12:53:40.682Z,98698.91
2023-03-21T12:56:12.636Z,98701.06
2023-03-21T12:58:47.844Z,98701.44
2023-03-21T13:01:17.917Z,98699.44
2023-03-21T13:03:51.063Z,98690.53
2023-03-21T13:06:25.472Z,98687.59
2023-03-21T13:09:01.255Z,98692.66
2023-03-21T13:11:31.881Z,98691.72
2023-03-21T13:14:05.752Z,98648.53
2023-03-21T13:16:37.787Z,98669.91
2023-03-21T13:19:16.487Z,98683.56
2023-03-21T13:21:52.013Z,98672.53
2023-03-21T13:24:27.277Z,98679.59
2023-03-21T13:27:02.588Z,98666.19
2023-03-21T13:29:33.477Z,98669.94
2023-03-21T13:32:15.981Z,98663.09
2023-03-21T13:34:45.182Z,98668.69
2023-03-21T13:37:20.088Z,98656.06
2023-03-21T13:39:48.472Z,98652.28
2023-03-21T13:42:24.302Z,98645.41
2023-03-21T13:44:56.913Z,98649.53
2023-03-21T13:47:42.660Z,98648.81
2023-03-21T13:50:22.980Z,98658.00
2023-03-21T13:53:19.890Z,98647.50
2023-03-21T13:56:00.031Z,98650.03
2023-03-21T13:58:40.667Z,98656.22
2023-03-21T14:01:26.475Z,98651.41
2023-03-21T14:04:01.450Z,98655.06
2023-03-21T14:06:36.394Z,98650.72
2023-03-21T14:09:07.009Z,98640.41
2023-03-21T14:11:36.940Z,98638.09
2023-03-21T14:14:07.262Z,98643.28
2023-03-21T14:16:35.365Z,98640.91
2023-03-21T14:19:05.904Z,98638.81
2023-03-21T14:21:36.014Z,98641.19
2023-03-21T14:24:07.228Z,98634.19
2023-03-21T14:26:38.547Z,98635.16
2023-03-21T14:29:23.023Z,98636.88
2023-03-21T14:31:54.522Z,98638.59
2023-03-21T14:34:23.837Z,98628.53
2023-03-21T14:36:58.078Z,98628.19
2023-03-21T14:39:31.051Z,98630.38
2023-03-21T14:42:04.445Z,98640.59
2023-03-21T14:44:44.204Z,98637.91
2023-03-21T14:47:21.299Z,98634.50
2023-03-21T14:49:50.898Z,98629.91
2023-03-21T14:52:24.338Z,98623.19
2023-03-21T14:54:54.531Z,98633.75
2023-03-21T14:57:25.063Z,98625.41
2023-03-21T14:59:55.496Z,98609.78
2023-03-21T15:02:26.620Z,98612.97
2023-03-21T15:04:57.278Z,98621.06
2023-03-21T15:07:28.163Z,98612.13
2023-03-21T15:10:00.981Z,98618.81
2023-03-21T15:12:29.024Z,98604.22
2023-03-21T15:14:57.779Z,98608.91
2023-03-21T15:17:26.665Z,98582.84
2023-03-21T15:19:54.919Z,98601.69
2023-03-21T15:22:30.468Z,98594.66
2023-03-21T15:25:03.547Z,98603.72
2023-03-21T15:27:34.404Z,98596.59
2023-03-21T15:30:02.447Z,98593.91
2023-03-21T15:32:30.685Z,98585.53
2023-03-21T15:35:07.745Z,98592.16
2023-03-21T15:37:37.643Z,98598.00
2023-03-21T15:40:18.225Z,98593.25
2023-03-21T15:42:46.233Z,98599.44
2023-03-21T15:45:21.804Z,98602.13
2023-03-21T15:47:55.704Z,98604.66
2023-03-21T15:50:29.565Z,98602.59
2023-03-21T15:53:01.317Z,98601.69
2023-03-21T15:55:36.296Z,98604.72
2023-03-21T15:58:07.389Z,98599.34
2023-03-21T16:00:41.167Z,98603.13
2023-03-21T16:03:17.120Z,98599.69
2023-03-21T16:06:04.311Z,98597.72
2023-03-21T16:08:36.358Z,98591.88
2023-03-21T16:11:15.544Z,98601.81
2023-03-21T16:13:43.428Z,98606.28
2023-03-21T16:16:18.252Z,98602.75
2023-03-21T16:18:46.414Z,98597.31
2023-03-21T16:21:15.645Z,98594.75
2023-03-21T16:23:43.659Z,98608.38
2023-03-21T16:26:18.055Z,98618.03
2023-03-21T16:28:46.795Z,98615.97
2023-03-21T16:31:16.276Z,98602.16
2023-03-21T16:33:44.944Z,98617.91
2023-03-21T16:36:15.565Z,98607.28
2023-03-21T16:38:43.472Z,98615.34
2023-03-21T16:41:15.084Z,98623.38
2023-03-21T16:43:44.040Z,98626.53
2023-03-21T16:46:14.672Z,98623.00
2023-03-21T16:48:45.307Z,98623.78
2023-03-21T16:51:15.178Z,98621.69
2023-03-21T16:53:44.019Z,98627.09
2023-03-21T16:56:20.598Z,98631.44
2023-03-21T16:58:48.792Z,98631.06
2023-03-21T17:01:19.273Z,98622.34
2023-03-21T17:03:47.586Z,98634.75
2023-03-21T17:06:16.716Z,98635.03
2023-03-21T17:08:44.766Z,98641.59
2023-03-21T17:11:13.423Z,98630.50
2023-03-21T17:13:45.604Z,98635.47
2023-03-21T17:16:15.354Z,98633.66
2023-03-21T17:18:43.805Z,98633.06
2023-03-21T17:21:14.181Z,98631.84
2023-03-21T17:23:42.621Z,98639.16
2023-03-21T17:26:11.429Z,98639.53
2023-03-21T17:28:40.153Z,98646.22
2023-03-21T17:31:13.795Z,98648.94
2023-03-21T17:33:41.823Z,98646.72
2023-03-21T17:36:14.863Z,98644.28
2023-03-21T17:38:42.888Z,98647.00
2023-03-21T17:41:12.622Z,98641.25
2023-03-21T17:43:40.624Z,98642.53
2023-03-21T17:46:13.249Z,98647.31
2023-03-21T17:48:41.358Z,98644.78
2023-03-21T17:51:12.965Z,98640.16
2023-03-21T17:53:40.871Z,98633.28
2023-03-21T17:56:13.888Z,98643.53
2023-03-21T17:58:41.800Z,98643.97
2023-03-21T18:01:11.523Z,98636.09
2023-03-21T18:03:39.495Z,98638.66
2023-03-21T18:06:08.481Z,98627.53
2023-03-21T18:08:36.340Z,98640.78
2023-03-21T18:11:04.272Z,98637.56
2023-03-21T18:13:32.633Z,98646.00
2023-03-21T18:16:00.765Z,98644.00
2023-03-21T18:18:30.001Z,98652.72
2023-03-21T18:20:58.894Z,98648.50
2023-03-21T18:23:27.158Z,98649.50
2023-03-21T18:25:55.513Z,98632.22
2023-03-21T18:28:23.792Z,98637.97
2023-03-21T18:31:12.681Z,98634.75
2023-03-21T18:33:45.182Z,98639.38
2023-03-21T18:36:16.378Z,98629.53
2023-03-21T18:38:44.673Z,98636.44
2023-03-21T18:41:12.705Z,98627.72
2023-03-21T18:44:01.539Z,98632.63
2023-03-21T18:46:30.478Z,98629.41
2023-03-21T18:49:19.873Z,98628.69
2023-03-21T18:51:48.021Z,98634.19
2023-03-21T18:54:15.981Z,98624.22
2023-03-21T18:59:34.630Z,98629.97
2023-03-21T19:02:03.242Z,98640.38
2023-03-21T19:04:33.763Z,98633.31
2023-03-21T19:07:01.683Z,98626.16
2023-03-21T19:09:32.147Z,98631.25
2023-03-21T19:12:00.789Z,98627.44
2023-03-21T19:14:29.144Z,98637.84
2023-03-21T19:19:48.387Z,98631.22
2023-03-21T19:22:17.007Z,98638.97
2023-03-21T19:24:44.889Z,98652.72
2023-03-21T19:27:13.346Z,98644.44
2023-03-21T19:29:41.528Z,98651.59
2023-03-21T19:32:09.670Z,98646.25
2023-03-21T19:34:37.820Z,98641.22
2023-03-21T19:37:07.228Z,98646.69
2023-03-21T19:39:35.158Z,98641.34
2023-03-21T19:42:15.937Z,98641.63
2023-03-21T19:44:44.998Z,98649.22
2023-03-21T19:47:12.980Z,98638.13
2023-03-21T19:52:32.009Z,98661.56
2023-03-21T19:54:59.919Z,98661.41
2023-03-21T19:57:27.826Z,98653.38
2023-03-21T19:59:55.684Z,98665.88
2023-03-21T20:02:35.419Z,98664.34
2023-03-21T20:05:04.249Z,98668.25
2023-03-21T20:07:33.675Z,98665.16
2023-03-21T20:10:01.611Z,98662.94
2023-03-21T20:12:29.554Z,98659.28
2023-03-21T20:15:10.307Z,98665.72
2023-03-21T20:17:44.922Z,98667.16
2023-03-21T20:20:15.749Z,98665.88
2023-03-21T20:23:07.546Z,98661.91
2023-03-21T20:25:36.739Z,98671.63
2023-03-21T20:28:26.064Z,98675.53
2023-03-21T20:30:57.030Z,98682.72
2023-03-21T20:33:25.683Z,98681.03
2023-03-21T20:38:46.763Z,98690.31
2023-03-21T20:41:14.712Z,98701.41
2023-03-21T20:46:30.640Z,98694.50
2023-03-21T20:48:59.800Z,98682.00
2023-03-21T20:54:17.916Z,98693.38
2023-03-21T20:56:45.851Z,98692.78
2023-03-21T20:59:26.182Z,98691.13
2023-03-21T21:01:56.235Z,98701.78
2023-03-21T21:04:42.816Z,98708.50
2023-03-21T21:07:16.223Z,98706.25
2023-03-21T21:09:46.541Z,98708.34
2023-03-21T21:12:15.814Z,98704.38
2023-03-21T21:14:43.815Z,98697.66
2023-03-21T21:17:54.085Z,98702.69
2023-03-21T21:20:01.613Z,98696.09
2023-03-21T21:22:29.933Z,98694.28
2023-03-21T21:24:59.207Z,98689.34
2023-03-21T21:27:27.101Z,98702.25
2023-03-21T21:29:54.983Z,98682.13
2023-03-21T21:32:22.890Z,98693.97
2023-03-21T21:34:50.766Z,98690.16
2023-03-21T21:37:18.681Z,98689.16
2023-03-21T21:39:46.784Z,98701.78
2023-03-21T21:42:16.428Z,98688.72
2023-03-21T21:44:46.757Z,98688.59
2023-03-21T21:47:15.850Z,98682.16
2023-03-21T21:49:43.737Z,98681.16
2023-03-21T21:52:13.730Z,98670.25
2023-03-21T21:54:45.751Z,98674.31
2023-03-21T21:57:19.079Z,98670.25
2023-03-21T21:59:47.168Z,98662.66
2023-03-21T22:02:16.879Z,98662.06
2023-03-21T22:04:44.785Z,98673.44
2023-03-21T22:07:14.772Z,98677.88
2023-03-21T22:09:42.933Z,98683.81
2023-03-21T22:12:11.056Z,98675.13
2023-03-21T22:14:40.467Z,98688.59
2023-03-21T22:17:08.402Z,98686.59
2023-03-21T22:19:37.794Z,98683.66
2023-03-21T22:22:07.016Z,98690.78
2023-03-21T22:24:35.869Z,98693.75
2023-03-21T22:27:03.790Z,98696.00
2023-03-21T22:29:31.681Z,98686.59
2023-03-21T22:32:00.996Z,98690.34
2023-03-21T22:34:28.974Z,98684.31
2023-03-21T22:36:57.783Z,98678.84
2023-03-21T22:39:26.495Z,98679.50
2023-03-21T22:41:56.703Z,98681.56
2023-03-21T22:44:24.752Z,98676.19
2023-03-21T22:46:52.671Z,98668.44
2023-03-21T22:49:21.958Z,98667.75
2023-03-21T22:51:49.856Z,98664.63
2023-03-21T22:54:17.707Z,98664.28
2023-03-21T22:56:45.628Z,98658.28
2023-03-21T22:59:13.638Z,98676.94
2023-03-21T23:01:41.571Z,98670.41
2023-03-21T23:04:09.708Z,98671.66
2023-03-21T23:06:38.995Z,98665.88
2023-03-21T23:09:06.858Z,98663.78
2023-03-21T23:11:34.922Z,98683.16
2023-03-21T23:14:08.061Z,98683.88
2023-03-21T23:16:38.524Z,98683.44
2023-03-21T23:19:08.188Z,98675.81
2023-03-21T23:21:38.378Z,98687.16
2023-03-21T23:24:08.737Z,98694.97
2023-03-21T23:26:36.933Z,98689.91
2023-03-21T23:29:05.350Z,98685.44
2023-03-21T23:31:34.067Z,98690.03
2023-03-21T23:34:02.605Z,98698.06
2023-03-21T23:36:31.212Z,98709.44
2023-03-21T23:38:59.260Z,98701.09
2023-03-21T23:41:28.594Z,98696.09
2023-03-21T23:43:56.455Z,98695.00
2023-03-21T23:46:24.483Z,98697.69
2023-03-21T23:48:52.971Z,98692.47
2023-03-21T23:51:21.074Z,98687.88
2023-03-21T23:53:49.139Z,98684.84
2023-03-21T23:56:19.762Z,98690.03
2023-03-21T23:58:50.007Z,98681.09
